TXKF/BDA METAR and TAF weather

Enter ICAO airport designator
Station Type Date Time Source
TXKF METAR 2019/07/18 10:55 UTC NOAA

TXKF 181055Z 24007KT 9999 FEW019 FEW300 28/23 Q1022


Station Type Date Time Source
TXKF Decoded METAR 2019/07/18 10:55 UTC NOAA

Bermuda, Bermuda (TXKF) 32-22N 064-41W
Jul 18, 2019 - 06:55 AM EDT / 2019.07.18 1055 UTC
Wind: from the WSW (240 degrees) at 8 MPH (7 KT):0
Visibility: greater than 7 mile(s):0
Sky conditions: mostly clear
Temperature: 82 F (28 C)
Dew Point: 73 F (23 C)
Relative Humidity: 74%
Pressure (altimeter): 30.18 in. Hg (1022 hPa)
ob: TXKF 181055Z 24007KT 9999 FEW019 FEW300 28/23 Q1022
cycle: 11

Station Type Date Time Source
TXKF TAF 2019/07/18 06:37 UTC NOAA

TAF TXKF 180532Z 1806/1906 24010KT 9999 FEW018 SCT300

Example: see airport list